createdAt,value
2019-03-27T00:01:55.184Z,100.00
2019-03-27T00:04:25.054Z,100.00
2019-03-27T00:06:54.945Z,100.00
2019-03-27T00:09:24.789Z,100.00
2019-03-27T00:11:54.656Z,100.00
2019-03-27T00:14:24.492Z,100.00
2019-03-27T00:16:54.324Z,100.00
2019-03-27T00:19:24.211Z,100.00
2019-03-27T00:21:54.055Z,100.00
2019-03-27T00:24:24.303Z,100.00
2019-03-27T00:26:54.146Z,100.00
2019-03-27T00:29:24.022Z,100.00
2019-03-27T00:31:53.908Z,100.00
2019-03-27T00:34:23.748Z,100.00
2019-03-27T00:36:53.695Z,100.00
2019-03-27T00:39:23.498Z,100.00
2019-03-27T00:41:53.286Z,100.00
2019-03-27T00:44:23.543Z,100.00
2019-03-27T00:46:53.328Z,100.00
2019-03-27T00:49:23.210Z,100.00
2019-03-27T00:51:53.312Z,100.00
2019-03-27T00:54:23.386Z,100.00
2019-03-27T00:56:53.401Z,100.00
2019-03-27T00:59:23.421Z,100.00
2019-03-27T01:01:53.235Z,100.00
2019-03-27T01:04:23.394Z,100.00
2019-03-27T01:06:53.186Z,100.00
2019-03-27T01:09:23.117Z,100.00
2019-03-27T01:11:52.886Z,100.00
2019-03-27T01:14:22.717Z,100.00
2019-03-27T01:16:52.637Z,100.00
2019-03-27T01:19:22.426Z,100.00
2019-03-27T01:21:52.240Z,100.00
2019-03-27T01:24:22.011Z,100.00
2019-03-27T01:26:51.885Z,100.00
2019-03-27T01:29:21.638Z,100.00
2019-03-27T01:31:51.379Z,100.00
2019-03-27T01:34:21.567Z,100.00
2019-03-27T01:36:51.404Z,100.00
2019-03-27T01:39:21.567Z,100.00
2019-03-27T01:41:51.417Z,100.00
2019-03-27T01:44:21.194Z,100.00
2019-03-27T01:46:51.137Z,100.00
2019-03-27T01:49:21.853Z,100.00
2019-03-27T01:52:12.005Z,100.00
2019-03-27T01:54:41.782Z,100.00
2019-03-27T01:57:11.706Z,100.00
2019-03-27T01:59:41.709Z,100.00
2019-03-27T02:02:11.764Z,100.00
2019-03-27T02:04:41.591Z,100.00
2019-03-27T02:07:11.400Z,100.00
2019-03-27T02:09:41.202Z,100.00
2019-03-27T02:12:10.974Z,100.00
2019-03-27T02:14:40.793Z,100.00
2019-03-27T02:17:10.671Z,100.00
2019-03-27T02:19:40.422Z,100.00
2019-03-27T02:22:49.736Z,100.00
2019-03-27T02:25:19.750Z,100.00
2019-03-27T02:27:49.812Z,100.00
2019-03-27T02:30:19.563Z,100.00
2019-03-27T02:32:49.357Z,100.00
2019-03-27T02:35:19.404Z,100.00
2019-03-27T02:37:50.102Z,100.00
2019-03-27T02:40:20.117Z,100.00
2019-03-27T02:42:49.936Z,100.00
2019-03-27T02:45:19.720Z,100.00
2019-03-27T02:47:49.536Z,100.00
2019-03-27T02:50:19.797Z,100.00
2019-03-27T02:52:49.630Z,100.00
2019-03-27T02:55:19.733Z,100.00
2019-03-27T02:57:49.490Z,100.00
2019-03-27T03:00:58.416Z,100.00
2019-03-27T03:03:28.587Z,100.00
2019-03-27T03:05:58.359Z,100.00
2019-03-27T03:08:28.152Z,100.00
2019-03-27T03:10:57.966Z,100.00
2019-03-27T03:13:27.719Z,100.00
2019-03-27T03:15:57.490Z,100.00
2019-03-27T03:18:27.298Z,100.00
2019-03-27T03:20:57.054Z,100.00
2019-03-27T03:23:26.835Z,100.00
2019-03-27T03:25:56.720Z,100.00
2019-03-27T03:28:26.523Z,100.00
2019-03-27T03:30:56.301Z,100.00
2019-03-27T03:33:26.086Z,100.00
2019-03-27T03:35:55.898Z,100.00
2019-03-27T03:38:25.670Z,100.00
2019-03-27T03:40:55.560Z,100.00
2019-03-27T03:43:25.430Z,100.00
2019-03-27T03:45:55.269Z,100.00
2019-03-27T03:48:25.087Z,100.00
2019-03-27T03:51:34.059Z,100.00
2019-03-27T03:54:24.003Z,100.00
2019-03-27T03:57:32.894Z,100.00
2019-03-27T04:00:44.164Z,100.00
2019-03-27T04:03:14.235Z,100.00
2019-03-27T04:05:44.107Z,100.00
2019-03-27T04:08:13.887Z,100.00
2019-03-27T04:10:43.811Z,100.00
2019-03-27T04:13:14.004Z,100.00
2019-03-27T04:15:43.991Z,100.00
2019-03-27T04:18:13.727Z,100.00
2019-03-27T04:20:43.527Z,100.00
2019-03-27T04:23:13.300Z,100.00
2019-03-27T04:26:08.288Z,100.00
2019-03-27T04:28:14.642Z,100.00
2019-03-27T04:30:44.390Z,100.00
2019-03-27T04:33:14.146Z,100.00
2019-03-27T04:35:43.918Z,100.00
2019-03-27T04:38:13.703Z,100.00
2019-03-27T04:40:43.473Z,100.00
2019-03-27T04:43:13.305Z,100.00
2019-03-27T04:45:43.172Z,100.00
2019-03-27T04:48:12.976Z,100.00
2019-03-27T04:50:42.856Z,100.00
2019-03-27T04:53:12.638Z,100.00
2019-03-27T04:55:42.758Z,100.00
2019-03-27T04:58:12.553Z,100.00
2019-03-27T05:00:42.394Z,100.00
2019-03-27T05:03:12.202Z,100.00
2019-03-27T05:05:42.080Z,100.00
2019-03-27T05:08:12.062Z,100.00
2019-03-27T05:10:41.916Z,100.00
2019-03-27T05:13:11.746Z,100.00
2019-03-27T05:15:41.501Z,100.00
2019-03-27T05:18:11.700Z,100.00
2019-03-27T05:20:41.477Z,100.00
2019-03-27T05:23:11.284Z,100.00
2019-03-27T05:25:41.070Z,100.00
2019-03-27T05:28:11.765Z,100.00
2019-03-27T05:30:41.577Z,100.00
2019-03-27T05:33:11.452Z,100.00
2019-03-27T05:35:41.258Z,100.00
2019-03-27T05:38:11.106Z,100.00
2019-03-27T05:40:40.930Z,100.00
2019-03-27T05:43:10.793Z,100.00
2019-03-27T05:45:40.637Z,100.00
2019-03-27T05:48:10.788Z,100.00
2019-03-27T05:50:40.602Z,100.00
2019-03-27T05:53:10.822Z,100.00
2019-03-27T05:55:40.650Z,100.00
2019-03-27T05:58:10.643Z,100.00
2019-03-27T06:00:40.557Z,100.00
2019-03-27T06:03:10.897Z,100.00
2019-03-27T06:05:41.723Z,100.00
2019-03-27T06:08:50.672Z,100.00
2019-03-27T06:11:20.446Z,100.00
2019-03-27T06:13:50.282Z,100.00
2019-03-27T06:16:20.166Z,100.00
2019-03-27T06:18:50.025Z,100.00
2019-03-27T06:21:19.832Z,100.00
2019-03-27T06:23:50.027Z,100.00
2019-03-27T06:26:19.969Z,100.00
2019-03-27T06:28:50.103Z,100.00
2019-03-27T06:31:19.918Z,100.00
2019-03-27T06:33:49.752Z,100.00
2019-03-27T06:36:19.595Z,100.00
2019-03-27T06:38:49.822Z,100.00
2019-03-27T06:41:19.719Z,100.00
2019-03-27T06:43:49.556Z,100.00
2019-03-27T06:46:19.450Z,100.00
2019-03-27T06:48:49.336Z,100.00
2019-03-27T06:51:19.148Z,100.00
2019-03-27T06:53:48.987Z,100.00
2019-03-27T06:56:18.855Z,100.00
2019-03-27T06:58:54.359Z,100.00
2019-03-27T07:01:20.238Z,100.00
2019-03-27T07:03:50.354Z,100.00
2019-03-27T07:06:20.130Z,100.00
2019-03-27T07:08:49.935Z,100.00
2019-03-27T07:11:19.787Z,100.00
2019-03-27T07:13:49.588Z,100.00
2019-03-27T07:16:19.437Z,100.00
2019-03-27T07:18:50.748Z,100.00
2019-03-27T07:21:20.621Z,100.00
2019-03-27T07:23:50.472Z,100.00
2019-03-27T07:26:20.405Z,100.00
2019-03-27T07:28:50.729Z,100.00
2019-03-27T07:31:20.624Z,100.00
2019-03-27T07:33:50.867Z,100.00
2019-03-27T07:36:20.740Z,100.00
2019-03-27T07:38:50.519Z,100.00
2019-03-27T07:41:20.610Z,100.00
2019-03-27T07:43:50.673Z,100.00
2019-03-27T07:46:21.410Z,100.00
2019-03-27T07:48:54.140Z,100.00
2019-03-27T07:51:22.733Z,100.00
2019-03-27T07:53:52.519Z,100.00
2019-03-27T07:56:23.153Z,100.00
2019-03-27T07:58:53.040Z,100.00
2019-03-27T08:01:23.018Z,100.00
2019-03-27T08:03:52.765Z,100.00
2019-03-27T08:06:22.535Z,100.00
2019-03-27T08:08:52.468Z,100.00
2019-03-27T08:11:22.817Z,100.00
2019-03-27T08:13:52.591Z,100.00
2019-03-27T08:16:22.408Z,100.00
2019-03-27T08:18:52.149Z,100.00
2019-03-27T08:21:21.951Z,100.00
2019-03-27T08:23:51.756Z,100.00
2019-03-27T08:26:21.598Z,100.00
2019-03-27T08:28:51.462Z,100.00
2019-03-27T08:31:21.373Z,100.00
2019-03-27T08:33:51.142Z,100.00
2019-03-27T08:36:20.896Z,100.00
2019-03-27T08:38:50.718Z,100.00
2019-03-27T08:41:20.479Z,100.00
2019-03-27T08:43:50.602Z,100.00
2019-03-27T08:46:20.350Z,100.00
2019-03-27T08:48:50.142Z,100.00
2019-03-27T08:51:19.903Z,100.00
2019-03-27T08:53:49.707Z,100.00
2019-03-27T08:56:19.474Z,100.00
2019-03-27T08:58:49.243Z,100.00
2019-03-27T09:01:19.053Z,100.00
2019-03-27T09:03:48.885Z,100.00
2019-03-27T09:06:32.782Z,100.00
2019-03-27T09:08:51.031Z,100.00
2019-03-27T09:11:20.840Z,100.00
2019-03-27T09:13:50.616Z,100.00
2019-03-27T09:16:20.442Z,100.00
2019-03-27T09:18:50.212Z,100.00
2019-03-27T09:21:20.369Z,100.00
2019-03-27T09:23:50.182Z,100.00
2019-03-27T09:26:19.948Z,100.00
2019-03-27T09:28:49.741Z,100.00
2019-03-27T09:31:19.544Z,100.00
2019-03-27T09:33:49.330Z,100.00
2019-03-27T09:36:19.401Z,100.00
2019-03-27T09:38:49.227Z,100.00
2019-03-27T09:41:21.431Z,100.00
2019-03-27T09:43:50.506Z,100.00
2019-03-27T09:46:20.270Z,100.00
2019-03-27T09:48:50.056Z,100.00
2019-03-27T09:51:19.813Z,100.00
2019-03-27T09:53:52.954Z,100.00
2019-03-27T09:56:21.079Z,100.00
2019-03-27T09:59:09.977Z,100.00
2019-03-27T10:01:39.722Z,100.00
2019-03-27T10:04:09.913Z,100.00
2019-03-27T10:06:39.945Z,100.00
2019-03-27T10:09:09.799Z,100.00
2019-03-27T10:11:39.578Z,100.00
2019-03-27T10:14:09.368Z,100.00
2019-03-27T10:16:39.179Z,100.00
2019-03-27T10:19:08.962Z,100.00
2019-03-27T10:21:38.745Z,100.00
2019-03-27T10:24:08.499Z,100.00
2019-03-27T10:26:38.310Z,100.00
2019-03-27T10:29:08.118Z,100.00
2019-03-27T10:31:38.063Z,100.00
2019-03-27T10:34:07.924Z,100.00
2019-03-27T10:36:37.751Z,100.00
2019-03-27T10:39:08.524Z,100.00
2019-03-27T10:41:38.398Z,100.00
2019-03-27T10:44:08.170Z,100.00
2019-03-27T10:46:38.043Z,100.00
2019-03-27T10:49:07.827Z,100.00
2019-03-27T10:51:37.637Z,100.00
2019-03-27T10:54:07.406Z,100.00
2019-03-27T10:56:37.289Z,100.00
2019-03-27T10:59:07.091Z,100.00
2019-03-27T11:01:36.949Z,100.00
2019-03-27T11:04:06.760Z,100.00
2019-03-27T11:06:36.564Z,100.00
2019-03-27T11:09:09.495Z,100.00
2019-03-27T11:11:39.374Z,100.00
2019-03-27T11:14:09.145Z,100.00
2019-03-27T11:19:54.196Z,100.00
2019-03-27T11:22:24.026Z,100.00
2019-03-27T11:24:53.830Z,100.00
2019-03-27T11:27:23.687Z,100.00
2019-03-27T11:29:53.796Z,100.00
2019-03-27T11:32:23.714Z,100.00
2019-03-27T11:34:58.614Z,100.00
2019-03-27T11:37:28.689Z,100.00
2019-03-27T11:39:59.038Z,100.00
2019-03-27T11:42:29.048Z,100.00
2019-03-27T11:45:17.989Z,98.67
2019-03-27T11:47:47.955Z,95.64
2019-03-27T11:50:18.020Z,94.98
2019-03-27T11:52:48.896Z,100.00
2019-03-27T11:55:57.818Z,100.00
2019-03-27T11:58:28.161Z,91.45
2019-03-27T12:00:58.008Z,100.00
2019-03-27T12:03:27.997Z,100.00
2019-03-27T12:05:58.310Z,100.00
2019-03-27T12:08:28.338Z,100.00
2019-03-27T12:10:58.225Z,100.00
2019-03-27T12:13:28.765Z,100.00
2019-03-27T12:16:00.307Z,100.00
2019-03-27T12:18:31.967Z,100.00
2019-03-27T12:21:02.359Z,100.00
2019-03-27T12:23:32.367Z,100.00
2019-03-27T12:26:02.366Z,100.00
2019-03-27T12:28:32.243Z,100.00
2019-03-27T12:31:02.148Z,100.00
2019-03-27T12:33:50.826Z,100.00
2019-03-27T12:36:20.718Z,100.00
2019-03-27T12:38:51.598Z,100.00
2019-03-27T12:41:21.447Z,100.00
2019-03-27T12:43:51.229Z,100.00
2019-03-27T12:46:21.422Z,100.00
2019-03-27T12:48:51.224Z,100.00
2019-03-27T12:51:21.031Z,100.00
2019-03-27T12:53:52.307Z,100.00
2019-03-27T12:56:22.243Z,97.03
2019-03-27T12:58:52.082Z,93.68
2019-03-27T13:01:21.975Z,91.82
2019-03-27T13:03:51.822Z,88.21
2019-03-27T13:06:21.726Z,83.36
2019-03-27T13:08:51.612Z,82.82
2019-03-27T13:11:21.468Z,81.79
2019-03-27T13:13:51.355Z,80.14
2019-03-27T13:16:21.116Z,79.84
2019-03-27T13:18:51.741Z,77.59
2019-03-27T13:21:26.589Z,82.23
2019-03-27T13:23:53.448Z,78.93
2019-03-27T13:26:23.305Z,76.08
2019-03-27T13:28:53.129Z,72.43
2019-03-27T13:31:22.994Z,75.88
2019-03-27T13:33:52.897Z,74.50
2019-03-27T13:36:22.738Z,73.47
2019-03-27T13:38:52.678Z,71.53
2019-03-27T13:41:22.524Z,71.90
2019-03-27T13:43:52.383Z,68.54
2019-03-27T13:46:22.188Z,69.75
2019-03-27T13:49:31.093Z,71.06
2019-03-27T13:52:00.905Z,65.16
2019-03-27T13:54:31.397Z,64.00
2019-03-27T13:57:01.256Z,62.55
2019-03-27T13:59:31.634Z,60.97
2019-03-27T14:02:01.480Z,59.69
2019-03-27T14:04:31.320Z,59.43
2019-03-27T14:07:01.247Z,61.65
2019-03-27T14:12:30.298Z,69.00
2019-03-27T14:15:02.340Z,75.50
2019-03-27T14:17:32.182Z,75.97
2019-03-27T14:20:02.382Z,81.33
2019-03-27T14:22:32.228Z,85.52
2019-03-27T14:25:02.295Z,87.17
2019-03-27T14:27:32.230Z,89.48
2019-03-27T14:30:02.416Z,87.48
2019-03-27T14:32:32.368Z,84.13
2019-03-27T14:35:02.311Z,80.22
2019-03-27T14:37:32.428Z,82.42
2019-03-27T14:43:22.783Z,87.68
2019-03-27T14:45:54.453Z,79.87
2019-03-27T14:48:44.551Z,73.01
2019-03-27T14:51:14.437Z,72.26
2019-03-27T14:53:44.517Z,76.22
2019-03-27T14:58:53.704Z,81.53
2019-03-27T15:01:23.674Z,80.47
2019-03-27T15:03:53.558Z,81.45
2019-03-27T15:06:59.817Z,81.90
2019-03-27T15:09:30.177Z,86.79
2019-03-27T15:12:00.476Z,91.10
2019-03-27T15:14:30.453Z,93.01
2019-03-27T15:17:00.542Z,93.23
2019-03-27T15:19:31.276Z,91.17
2019-03-27T15:22:01.101Z,92.70
2019-03-27T15:24:30.913Z,89.99
2019-03-27T15:27:00.913Z,86.47
2019-03-27T15:29:50.007Z,87.00
2019-03-27T15:32:19.985Z,89.00
2019-03-27T16:21:20.329Z,100.00
2019-03-27T17:31:24.956Z,100.00
2019-03-27T17:34:05.524Z,100.00
2019-03-27T17:36:35.484Z,100.00
2019-03-27T17:49:46.239Z,100.00
2019-03-27T17:52:16.318Z,100.00
2019-03-27T17:54:46.506Z,100.00
2019-03-27T17:57:16.690Z,100.00
2019-03-27T18:22:19.565Z,100.00
2019-03-27T18:24:49.852Z,100.00
2019-03-27T18:27:19.735Z,100.00
2019-03-27T18:29:49.818Z,100.00
2019-03-27T18:32:20.386Z,100.00
2019-03-27T18:34:50.438Z,100.00
2019-03-27T18:37:20.419Z,100.00
2019-03-27T18:40:12.983Z,100.00
2019-03-27T22:10:13.394Z,100.00
2019-03-27T22:55:50.717Z,100.00
2019-03-27T23:26:11.940Z,100.00
2019-03-27T23:28:41.742Z,100.00
2019-03-27T23:31:11.499Z,100.00
2019-03-27T23:33:42.015Z,100.00
2019-03-27T23:36:12.152Z,100.00
2019-03-27T23:38:42.005Z,100.00
2019-03-27T23:41:11.825Z,100.00
2019-03-27T23:43:41.701Z,100.00
2019-03-27T23:46:11.572Z,100.00
2019-03-27T23:48:41.398Z,100.00
2019-03-27T23:51:11.230Z,100.00
2019-03-27T23:53:41.081Z,100.00
2019-03-27T23:56:16.556Z,100.00
2019-03-27T23:58:42.814Z,100.00
